KPAH/PAH METAR and TAF weather

Enter ICAO airport designator
Station Type Date Time Source
KPAH METAR 2022/12/04 11:53 UTC NOAA

KPAH 041153Z 05003KT 10SM CLR M01/M06 A3038 RMK AO2 SLP289 T10111061 11006 21011 55010


Station Type Date Time Source
KPAH Decoded METAR 2022/12/04 11:53 UTC NOAA

BARKLEY REGIONAL AIRPORT, KY, United States (KPAH) 37-03N 088-46W 118M
Dec 04, 2022 - 06:53 AM EST / 2022.12.04 1153 UTC
Wind: from the NE (050 degrees) at 3 MPH (3 KT):0
Visibility: 10 mile(s):0
Sky conditions: clear
Temperature: 30.0 F (-1.1 C)
Dew Point: 21.0 F (-6.1 C)
Relative Humidity: 68%
Pressure (altimeter): 30.38 in. Hg (1028 hPa)
Pressure tendency: 0.03 inches (1.0 hPa) lower than three hours ago
ob: KPAH 041153Z 05003KT 10SM CLR M01/M06 A3038 RMK AO2 SLP289 T10111061 11006 21011 55010
cycle: 12

Station Type Date Time Source
KPAH TAF 2022/12/04 12:22 UTC NOAA

TAF KPAH 041120Z 0412/0512 VRB02KT P6SM BKN250
FM041700 17005KT P6SM BKN200
FM050100 VRB02KT P6SM BKN060

Example: see airport list